createdAt,value
2019-03-02T00:03:31.669Z,100866.59
2019-03-02T00:06:00.938Z,100849.33
2019-03-02T00:08:31.101Z,100849.79
2019-03-02T00:11:00.386Z,100843.74
2019-03-02T00:13:30.021Z,100836.40
2019-03-02T00:16:00.813Z,100833.81
2019-03-02T00:18:30.365Z,100827.80
2019-03-02T00:20:59.757Z,100827.80
2019-03-02T00:23:29.084Z,100829.93
2019-03-02T00:25:58.399Z,100827.80
2019-03-02T00:28:27.681Z,100828.63
2019-03-02T00:30:57.794Z,100829.50
2019-03-02T00:33:27.991Z,100824.75
2019-03-02T00:35:57.278Z,100815.27
2019-03-02T00:38:26.561Z,100807.92
2019-03-02T00:40:56.009Z,100807.08
2019-03-02T00:43:27.086Z,100811.80
2019-03-02T00:45:57.402Z,100802.73
2019-03-02T00:51:01.330Z,100797.95
2019-03-02T00:53:31.954Z,100792.34
2019-03-02T00:56:13.162Z,100788.02
2019-03-02T00:58:42.548Z,100777.65
2019-03-02T01:01:11.841Z,100781.06
2019-03-02T01:03:41.330Z,100787.09
2019-03-02T01:06:29.866Z,100778.89
2019-03-02T01:08:59.128Z,100770.23
2019-03-02T01:11:29.509Z,100769.83
2019-03-02T01:13:59.568Z,100772.43
2019-03-02T01:16:28.885Z,100763.79
2019-03-02T01:18:58.186Z,100763.79
2019-03-02T01:21:27.766Z,100762.06
2019-03-02T01:23:59.718Z,100760.77
2019-03-02T01:26:28.278Z,100763.34
2019-03-02T01:28:57.578Z,100714.20
2019-03-02T01:31:26.883Z,100761.53
2019-03-02T01:36:16.668Z,100708.55
2019-03-02T01:38:46.073Z,100761.12
2019-03-02T01:41:17.764Z,100760.27
2019-03-02T01:46:22.219Z,100754.68
2019-03-02T01:48:51.521Z,100756.38
2019-03-02T01:51:23.152Z,100755.06
2019-03-02T01:53:52.243Z,100750.77
2019-03-02T01:56:41.439Z,100749.89
2019-03-02T01:59:32.085Z,100752.02
2019-03-02T02:02:01.526Z,100754.99
2019-03-02T02:04:31.089Z,100742.05
2019-03-02T02:07:00.444Z,100739.86
2019-03-02T02:09:29.737Z,100744.63
2019-03-02T02:11:59.122Z,100729.97
2019-03-02T02:14:28.450Z,100731.67
2019-03-02T02:16:57.729Z,100724.73
2019-03-02T02:19:27.136Z,100715.20
2019-03-02T02:21:58.850Z,100711.27
2019-03-02T02:24:27.733Z,100706.50
2019-03-02T02:26:57.013Z,100705.58
2019-03-02T02:29:26.500Z,100705.53
2019-03-02T02:31:55.801Z,100705.47
2019-03-02T02:34:25.511Z,100702.83
2019-03-02T02:39:49.432Z,100697.69
2019-03-02T02:42:18.745Z,100699.34
2019-03-02T02:44:48.297Z,100688.06
2019-03-02T02:47:17.586Z,100643.41
2019-03-02T02:49:49.107Z,100690.73
2019-03-02T02:52:18.133Z,100639.94
2019-03-02T02:54:47.461Z,100688.51
2019-03-02T02:57:16.762Z,100583.95
2019-03-02T02:59:46.229Z,100672.55
2019-03-02T03:02:15.584Z,100670.78
2019-03-02T03:04:44.915Z,100664.72
2019-03-02T03:07:14.393Z,100658.20
2019-03-02T03:10:02.930Z,100662.09
2019-03-02T03:12:32.263Z,100653.45
2019-03-02T03:15:01.627Z,100597.47
2019-03-02T03:17:32.495Z,100639.52
2019-03-02T03:20:05.710Z,100642.52
2019-03-02T03:22:32.987Z,100643.79
2019-03-02T03:25:04.193Z,100629.50
2019-03-02T03:27:33.340Z,100632.58
2019-03-02T03:30:02.997Z,100637.33
2019-03-02T03:32:32.328Z,100599.92
2019-03-02T03:35:15.616Z,100633.41
2019-03-02T03:37:32.893Z,100633.41
2019-03-02T03:40:02.315Z,100629.11
2019-03-02T03:42:31.660Z,100588.75
2019-03-02T03:45:04.345Z,100640.41
2019-03-02T03:47:34.089Z,100635.62
2019-03-02T03:50:03.235Z,100632.67
2019-03-02T03:52:32.594Z,100632.27
2019-03-02T03:55:02.053Z,100612.91
2019-03-02T03:57:31.389Z,100624.53
2019-03-02T04:00:20.005Z,100617.63
2019-03-02T04:02:49.388Z,100618.02
2019-03-02T04:05:42.262Z,100601.63
2019-03-02T04:08:24.349Z,100603.70
2019-03-02T04:10:51.362Z,100608.91
2019-03-02T04:13:21.028Z,100601.12
2019-03-02T04:15:50.320Z,100603.25
2019-03-02T04:19:06.678Z,100597.14
2019-03-02T04:21:38.842Z,100592.84
2019-03-02T04:24:08.135Z,100600.56
2019-03-02T04:29:12.608Z,100545.41
2019-03-02T04:31:43.982Z,100578.44
2019-03-02T04:34:20.614Z,100584.86
2019-03-02T04:36:47.465Z,100584.80
2019-03-02T04:39:15.176Z,100583.02
2019-03-02T04:41:44.742Z,100573.91
2019-03-02T04:44:14.074Z,100579.11
2019-03-02T04:46:43.637Z,100573.92
2019-03-02T04:49:14.660Z,100573.91
2019-03-02T04:51:44.364Z,100575.64
2019-03-02T04:54:13.654Z,100552.87
2019-03-02T04:59:21.995Z,100497.39
2019-03-02T05:01:51.289Z,100549.20
2019-03-02T05:04:20.660Z,100561.22
2019-03-02T05:06:50.638Z,100569.78
2019-03-02T05:09:20.975Z,100566.81
2019-03-02T05:11:50.314Z,100570.75
2019-03-02T05:14:19.619Z,100567.75
2019-03-02T05:16:49.193Z,100562.09
2019-03-02T05:19:18.519Z,100559.48
2019-03-02T05:21:48.229Z,100557.36
2019-03-02T05:24:17.521Z,100543.94
2019-03-02T05:26:47.117Z,100535.30
2019-03-02T05:29:17.690Z,100532.21
2019-03-02T05:32:06.524Z,100529.17
2019-03-02T05:34:36.728Z,100526.61
2019-03-02T05:37:07.447Z,100527.52
2019-03-02T05:39:55.782Z,100524.91
2019-03-02T05:42:25.550Z,100523.12
2019-03-02T05:45:13.755Z,100527.06
2019-03-02T05:47:43.217Z,100532.70
2019-03-02T05:50:12.647Z,100523.09
2019-03-02T05:52:41.983Z,100499.92
2019-03-02T05:55:30.692Z,100527.38
2019-03-02T05:58:00.333Z,100483.63
2019-03-02T06:00:29.628Z,100476.68
2019-03-02T06:02:59.482Z,100507.47
2019-03-02T06:05:28.880Z,100508.73
2019-03-02T06:08:00.438Z,100506.06
2019-03-02T06:10:29.234Z,100500.40
2019-03-02T06:13:18.903Z,100515.98
2019-03-02T06:15:48.490Z,100460.17
2019-03-02T06:18:17.852Z,100508.19
2019-03-02T06:20:47.157Z,100501.22
2019-03-02T06:23:16.536Z,100500.63
2019-03-02T06:25:45.867Z,100494.87
2019-03-02T06:28:15.161Z,100495.21
2019-03-02T06:30:45.031Z,100497.22
2019-03-02T06:33:36.197Z,100501.37
2019-03-02T06:36:08.805Z,100500.46
2019-03-02T06:38:37.206Z,100492.56
2019-03-02T06:41:06.556Z,100481.32
2019-03-02T06:43:35.920Z,100454.29
2019-03-02T06:46:05.273Z,100481.63
2019-03-02T06:48:34.600Z,100482.62
2019-03-02T06:51:03.940Z,100471.13
2019-03-02T06:53:34.034Z,100475.30
2019-03-02T06:56:04.406Z,100468.27
2019-03-02T06:58:34.094Z,100477.70
2019-03-02T07:01:03.417Z,100475.84
2019-03-02T07:03:51.682Z,100474.00
2019-03-02T07:06:21.051Z,100474.83
2019-03-02T07:08:50.363Z,100480.44
2019-03-02T07:11:19.697Z,100472.23
2019-03-02T07:13:49.010Z,100479.14
2019-03-02T07:16:20.094Z,100476.54
2019-03-02T07:21:44.151Z,100483.42
2019-03-02T07:24:13.456Z,100471.21
2019-03-02T07:29:36.617Z,100477.08
2019-03-02T07:32:06.156Z,100466.57
2019-03-02T07:37:23.863Z,100434.66
2019-03-02T07:39:53.166Z,100464.48
2019-03-02T07:42:22.592Z,100465.25
2019-03-02T07:45:10.795Z,100455.67
2019-03-02T07:47:40.252Z,100449.03
2019-03-02T07:50:29.735Z,100448.47
2019-03-02T07:52:59.099Z,100442.28
2019-03-02T07:55:28.399Z,100448.26
2019-03-02T07:57:57.740Z,100444.25
2019-03-02T08:00:27.219Z,100450.66
2019-03-02T08:02:56.762Z,100445.77
2019-03-02T08:08:34.672Z,100448.53
2019-03-02T08:11:03.969Z,100436.98
2019-03-02T08:13:36.614Z,100438.61
2019-03-02T08:16:04.361Z,100427.20
2019-03-02T08:26:38.023Z,100446.20
2019-03-02T08:29:07.638Z,100441.61
2019-03-02T08:31:37.032Z,100352.55
2019-03-02T08:34:09.758Z,100447.30
2019-03-02T08:36:38.064Z,100444.48
2019-03-02T08:39:10.648Z,100447.72
2019-03-02T08:41:39.248Z,100442.84
2019-03-02T08:44:08.664Z,100437.53
2019-03-02T08:46:38.552Z,100433.53
2019-03-02T08:49:09.263Z,100356.67
2019-03-02T08:51:57.757Z,100435.85
2019-03-02T08:54:27.477Z,100393.07
2019-03-02T08:57:15.694Z,100391.24
2019-03-02T09:02:19.497Z,100441.24
2019-03-02T09:04:50.821Z,100439.85
2019-03-02T09:07:20.657Z,100437.64
2019-03-02T09:09:50.341Z,100424.00
2019-03-02T09:12:21.881Z,100423.00
2019-03-02T09:14:50.919Z,100421.13
2019-03-02T09:17:20.274Z,100416.11
2019-03-02T09:19:49.637Z,100409.09
2019-03-02T09:22:20.855Z,100408.57
2019-03-02T09:24:50.126Z,100409.25
2019-03-02T09:27:38.346Z,100405.88
2019-03-02T09:30:09.834Z,100414.94
2019-03-02T09:32:39.202Z,100419.86
2019-03-02T09:35:09.479Z,100417.20
2019-03-02T09:37:40.869Z,100422.09
2019-03-02T09:40:13.388Z,100426.00
2019-03-02T09:42:42.612Z,100424.70
2019-03-02T09:45:13.532Z,100423.39
2019-03-02T09:47:43.957Z,100414.69
2019-03-02T09:50:15.305Z,100416.04
2019-03-02T09:52:44.911Z,100409.41
2019-03-02T09:55:56.243Z,100420.12
2019-03-02T09:58:25.855Z,100415.76
2019-03-02T10:00:56.810Z,100413.87
2019-03-02T10:03:26.934Z,100413.77
2019-03-02T10:05:57.212Z,100413.58
2019-03-02T10:08:26.597Z,100407.73
2019-03-02T10:10:56.138Z,100403.81
2019-03-02T10:13:25.483Z,100410.30
2019-03-02T10:15:54.950Z,100407.68
2019-03-02T10:18:24.310Z,100407.73
2019-03-02T10:20:55.445Z,100403.91
2019-03-02T10:23:25.144Z,100407.34
2019-03-02T10:25:54.667Z,100405.21
2019-03-02T10:28:24.173Z,100406.47
2019-03-02T10:30:53.483Z,100406.52
2019-03-02T10:33:41.823Z,100400.80
2019-03-02T10:36:11.159Z,100392.52
2019-03-02T10:38:40.484Z,100391.65
2019-03-02T10:41:28.723Z,100375.54
2019-03-02T10:43:58.110Z,100403.86
2019-03-02T10:46:27.550Z,100398.38
2019-03-02T10:48:56.975Z,100402.97
2019-03-02T10:51:26.301Z,100400.59
2019-03-02T10:56:50.566Z,100399.69
2019-03-02T10:59:19.943Z,100382.50
2019-03-02T11:01:49.376Z,100401.72
2019-03-02T11:04:41.034Z,100397.69
2019-03-02T11:07:27.605Z,100404.03
2019-03-02T11:10:16.676Z,100397.58
2019-03-02T11:13:05.865Z,100387.83
2019-03-02T11:15:54.226Z,100385.95
2019-03-02T11:18:42.456Z,100387.52
2019-03-02T11:21:30.956Z,100372.55
2019-03-02T11:24:20.702Z,100363.94
2019-03-02T11:26:56.433Z,100360.69
2019-03-02T11:29:50.944Z,100365.37
2019-03-02T11:32:29.292Z,100365.20
2019-03-02T11:35:11.438Z,100362.87
2019-03-02T11:38:01.527Z,100365.20
2019-03-02T11:40:49.569Z,100351.52
2019-03-02T11:43:37.784Z,100351.23
2019-03-02T11:46:15.112Z,100352.06
2019-03-02T11:49:03.420Z,100350.38
2019-03-02T11:51:51.671Z,100341.48
2019-03-02T11:54:39.980Z,100341.27
2019-03-02T11:57:28.214Z,100329.48
2019-03-02T12:00:37.447Z,100326.25
2019-03-02T12:03:18.332Z,100324.59
2019-03-02T12:06:07.090Z,100317.94
2019-03-02T12:08:57.976Z,100316.33
2019-03-02T12:11:47.064Z,100309.49
2019-03-02T12:14:35.192Z,100297.85
2019-03-02T12:17:23.400Z,100297.44
2019-03-02T12:20:11.622Z,100303.36
2019-03-02T12:22:59.846Z,100301.04
2019-03-02T12:28:53.598Z,100292.94
2019-03-02T12:31:38.355Z,100290.62
2019-03-02T12:34:26.776Z,100284.78
2019-03-02T12:37:32.844Z,100286.03
2019-03-02T12:40:19.975Z,100283.17
2019-03-02T12:43:08.574Z,100278.83
2019-03-02T12:48:42.815Z,100268.29
2019-03-02T12:51:31.071Z,100263.05
2019-03-02T12:54:19.405Z,100261.98
2019-03-02T12:57:08.717Z,100247.02
2019-03-02T12:59:57.737Z,100259.73
2019-03-02T13:02:48.011Z,100256.44
2019-03-02T13:05:36.495Z,100257.63
2019-03-02T13:08:26.479Z,100252.69
2019-03-02T13:11:14.869Z,100254.18
2019-03-02T13:13:56.686Z,100253.11
2019-03-02T13:16:45.655Z,100252.22
2019-03-02T13:19:34.719Z,100252.10
2019-03-02T13:22:26.152Z,100242.52
2019-03-02T13:25:05.620Z,100232.84
2019-03-02T13:27:56.829Z,100236.20
2019-03-02T13:30:41.137Z,100239.59
2019-03-02T13:33:48.469Z,100242.72
2019-03-02T13:36:26.063Z,100243.55
2019-03-02T13:39:06.491Z,100231.29
2019-03-02T13:41:55.347Z,100228.67
2019-03-02T13:44:43.776Z,100161.59
2019-03-02T13:47:32.036Z,100222.71
2019-03-02T13:50:20.476Z,100211.47
2019-03-02T13:53:08.733Z,100214.59
2019-03-02T13:55:49.413Z,100214.55
2019-03-02T13:58:24.949Z,100217.51
2019-03-02T14:01:13.335Z,100209.66
2019-03-02T14:04:01.745Z,100220.19
2019-03-02T14:06:50.959Z,100168.07
2019-03-02T14:09:40.407Z,100148.57
2019-03-02T14:12:29.099Z,100154.19
2019-03-02T14:15:21.525Z,100195.56
2019-03-02T14:17:58.299Z,100199.42
2019-03-02T14:20:46.483Z,100204.72
2019-03-02T14:23:35.008Z,100197.14
2019-03-02T14:26:13.586Z,100187.23
2019-03-02T14:29:21.012Z,100185.70
2019-03-02T14:32:10.136Z,100186.43
2019-03-02T14:34:59.213Z,100179.00
2019-03-02T14:37:47.860Z,100172.16
2019-03-02T14:40:37.238Z,100165.13
2019-03-02T14:43:19.974Z,100118.28
2019-03-02T14:46:08.443Z,100155.97
2019-03-02T14:48:56.765Z,100155.05
2019-03-02T14:51:32.629Z,100159.89
2019-03-02T14:54:21.913Z,100146.12
2019-03-02T14:56:57.683Z,100148.63
2019-03-02T14:59:46.882Z,100149.43
2019-03-02T15:02:49.000Z,100159.50
2019-03-02T15:05:37.619Z,100155.69
2019-03-02T15:08:17.572Z,100151.57
2019-03-02T15:11:05.865Z,100143.23
2019-03-02T15:13:54.218Z,100052.97
2019-03-02T15:17:01.568Z,100141.00
2019-03-02T15:19:57.389Z,100141.86
2019-03-02T15:23:00.813Z,100132.50
2019-03-02T15:25:40.731Z,100133.86
2019-03-02T15:28:29.823Z,100127.02
2019-03-02T15:31:19.095Z,100122.26
2019-03-02T15:34:10.249Z,100127.77
2019-03-02T15:36:57.333Z,100112.61
2019-03-02T15:39:49.277Z,100108.22
2019-03-02T15:42:35.458Z,100104.29
2019-03-02T15:45:30.254Z,100100.84
2019-03-02T15:48:37.508Z,100098.23
2019-03-02T15:51:30.864Z,100094.00
2019-03-02T15:54:18.742Z,100082.19
2019-03-02T15:57:06.946Z,100080.94
2019-03-02T15:59:55.144Z,100072.14
2019-03-02T16:02:43.592Z,100071.28
2019-03-02T16:05:31.969Z,100075.53
2019-03-02T16:08:20.165Z,100064.36
2019-03-02T16:10:56.602Z,100059.69
2019-03-02T16:13:49.872Z,100064.05
2019-03-02T16:16:34.890Z,100076.46
2019-03-02T16:19:25.105Z,100075.55
2019-03-02T16:22:13.370Z,100075.93
2019-03-02T16:25:04.917Z,100078.27
2019-03-02T16:27:51.718Z,100070.81
2019-03-02T16:30:40.423Z,100076.58
2019-03-02T16:33:31.184Z,100073.55
2019-03-02T16:36:18.738Z,100066.63
2019-03-02T16:42:07.222Z,100059.70
2019-03-02T16:44:55.599Z,100057.59
2019-03-02T16:47:48.485Z,100060.03
2019-03-02T16:50:35.237Z,100068.27
2019-03-02T16:53:19.562Z,100052.31
2019-03-02T16:56:07.570Z,100043.99
2019-03-02T16:58:56.986Z,100042.30
2019-03-02T17:01:45.388Z,100039.74
2019-03-02T17:04:33.748Z,99944.88
2019-03-02T17:07:23.294Z,99992.14
2019-03-02T17:10:12.457Z,99960.49
2019-03-02T17:13:01.150Z,100034.52
2019-03-02T17:15:49.352Z,99985.11
2019-03-02T17:18:37.711Z,100029.29
2019-03-02T17:21:16.584Z,100023.25
2019-03-02T17:23:54.151Z,100018.03
2019-03-02T17:26:46.108Z,99967.72
2019-03-02T17:29:32.416Z,100000.60
2019-03-02T17:32:21.198Z,99996.23
2019-03-02T17:35:09.443Z,99987.48
2019-03-02T17:37:58.292Z,99987.03
2019-03-02T17:41:07.791Z,99982.20
2019-03-02T17:43:55.558Z,99994.41
2019-03-02T17:46:47.039Z,99992.15
2019-03-02T17:49:28.726Z,99991.78
2019-03-02T17:52:13.346Z,99992.48
2019-03-02T17:55:20.247Z,99894.89
2019-03-02T17:58:08.581Z,99977.19
2019-03-02T18:00:59.894Z,99974.30
2019-03-02T18:03:49.822Z,99971.57
2019-03-02T18:06:23.706Z,99971.95
2019-03-02T18:09:10.562Z,99926.39
2019-03-02T18:11:58.930Z,99970.09
2019-03-02T18:14:49.993Z,99973.62
2019-03-02T18:17:38.242Z,99974.88
2019-03-02T18:20:19.559Z,99976.56
2019-03-02T18:22:49.634Z,99972.14
2019-03-02T18:25:38.309Z,99982.54
2019-03-02T18:28:27.105Z,99982.98
2019-03-02T18:30:57.453Z,99974.64
2019-03-02T18:36:21.204Z,99971.11
2019-03-02T18:38:50.539Z,99978.02
2019-03-02T18:41:19.860Z,99969.23
2019-03-02T18:43:49.287Z,99954.38
2019-03-02T18:46:18.573Z,99943.03
2019-03-02T18:51:56.913Z,99958.66
2019-03-02T18:54:27.402Z,99953.49
2019-03-02T18:56:56.877Z,99959.91
2019-03-02T18:59:26.370Z,99963.83
2019-03-02T19:01:55.735Z,99955.57
2019-03-02T19:04:27.804Z,99951.65
2019-03-02T19:06:59.236Z,99949.84
2019-03-02T19:12:16.968Z,99935.08
2019-03-02T19:20:18.262Z,99935.31
2019-03-02T19:22:47.745Z,99935.70
2019-03-02T19:25:56.341Z,99927.47
2019-03-02T19:28:44.570Z,99918.83
2019-03-02T19:33:53.130Z,99901.84
2019-03-02T19:36:22.462Z,99896.29
2019-03-02T19:38:51.767Z,99895.30
2019-03-02T19:41:40.113Z,99890.94
2019-03-02T19:44:09.441Z,99885.17
2019-03-02T19:46:38.891Z,99884.73
2019-03-02T19:49:08.177Z,99879.88
2019-03-02T19:51:37.562Z,99874.66
2019-03-02T19:54:06.936Z,99865.92
2019-03-02T19:56:36.363Z,99859.77
2019-03-02T19:59:05.723Z,99845.64
2019-03-02T20:01:35.642Z,99845.27
2019-03-02T20:04:05.231Z,99834.81
2019-03-02T20:06:34.591Z,99835.68
2019-03-02T20:12:12.471Z,99833.77
2019-03-02T20:14:41.906Z,99829.34
2019-03-02T20:20:01.118Z,99821.88
2019-03-02T20:22:30.450Z,99822.26
2019-03-02T20:24:59.736Z,99821.23
2019-03-02T20:27:48.216Z,99823.06
2019-03-02T20:30:18.531Z,99822.00
2019-03-02T20:32:47.832Z,99821.88
2019-03-02T20:35:20.610Z,99815.75
2019-03-02T20:37:49.914Z,99769.41
2019-03-02T20:40:20.775Z,99808.16
2019-03-02T20:45:38.571Z,99798.88
2019-03-02T20:48:08.074Z,99792.34
2019-03-02T20:50:37.407Z,99791.96
2019-03-02T20:53:07.082Z,99784.88
2019-03-02T20:55:36.387Z,99779.27
2019-03-02T20:58:05.938Z,99766.70
2019-03-02T21:00:35.381Z,99736.91
2019-03-02T21:03:23.723Z,99766.44
2019-03-02T21:05:53.278Z,99771.67
2019-03-02T21:08:22.567Z,99764.37
2019-03-02T21:10:52.307Z,99759.20
2019-03-02T21:13:21.622Z,99764.88
2019-03-02T21:15:51.587Z,99759.78
2019-03-02T21:18:20.929Z,99758.09
2019-03-02T21:20:50.546Z,99750.25
2019-03-02T21:23:19.861Z,99747.84
2019-03-02T21:25:49.358Z,99735.59
2019-03-02T21:28:18.719Z,99731.29
2019-03-02T21:30:48.366Z,99719.52
2019-03-02T21:33:17.661Z,99678.12
2019-03-02T21:35:47.330Z,99718.14
2019-03-02T21:38:16.768Z,99717.29
2019-03-02T21:40:46.314Z,99720.83
2019-03-02T21:43:15.644Z,99712.92
2019-03-02T21:45:45.211Z,99706.83
2019-03-02T21:48:14.632Z,99699.40
2019-03-02T21:51:04.850Z,99689.45
2019-03-02T21:53:34.218Z,99648.32
2019-03-02T21:56:03.537Z,99689.31
2019-03-02T21:58:51.886Z,99684.61
2019-03-02T22:01:21.249Z,99684.09
2019-03-02T22:04:09.529Z,99670.64
2019-03-02T22:06:38.867Z,99665.00
2019-03-02T22:09:48.022Z,99654.54
2019-03-02T22:12:17.326Z,99619.20
2019-03-02T22:14:46.719Z,99650.09
2019-03-02T22:17:16.099Z,99637.41
2019-03-02T22:19:45.610Z,99642.63
2019-03-02T22:22:14.948Z,99625.50
2019-03-02T22:25:03.232Z,99647.80
2019-03-02T22:27:32.734Z,99640.81
2019-03-02T22:32:50.690Z,99621.27
2019-03-02T22:46:12.525Z,99494.11
2019-03-02T22:51:35.414Z,99595.09
2019-03-02T22:54:04.764Z,99586.84
2019-03-02T22:56:34.080Z,99585.67
2019-03-02T22:59:02.371Z,99546.91
2019-03-02T23:02:09.854Z,99580.16
2019-03-02T23:04:39.140Z,99519.61
2019-03-02T23:07:27.463Z,99566.33
2019-03-02T23:09:57.141Z,99550.58
2019-03-02T23:12:26.434Z,99546.25
2019-03-02T23:17:44.563Z,99541.28
2019-03-02T23:20:13.846Z,99531.27
2019-03-02T23:22:43.521Z,99526.42
2019-03-02T23:25:12.823Z,99428.53
2019-03-02T23:27:42.361Z,99518.58
2019-03-02T23:30:11.803Z,99521.61
2019-03-02T23:32:41.432Z,99516.89
2019-03-02T23:35:10.788Z,99513.91
2019-03-02T23:37:40.358Z,99503.82
2019-03-02T23:40:09.687Z,99511.67
2019-03-02T23:42:39.328Z,99496.91
2019-03-02T23:45:08.868Z,99487.69
2019-03-02T23:47:38.274Z,99492.44
2019-03-02T23:50:08.178Z,99453.63
2019-03-02T23:52:56.426Z,99481.08
2019-03-02T23:58:00.828Z,99473.09
